ADDS METAR Data INFO
IDs: Format: Raw Decoded Include TAF

Data at: 2303 UTC 21 Feb 2018

KAMN 212258Z AUTO 00000KT 10SM CLR 01/M03 A3057 RMK AO2 T00111030
KAMN 212238Z AUTO 00000KT 10SM CLR 02/M03 A3057 RMK AO2 T00151028
KAMN 212218Z AUTO 00000KT 10SM CLR 02/M03 A3056 RMK AO2 T00171032
KAMN 212158Z AUTO 34003KT 10SM SCT028 02/M03 A3056 RMK AO2 T00181032
KAMN 212137Z AUTO 00000KT 10SM BKN028 02/M03 A3055 RMK AO2 T00201028
KAMN 212117Z AUTO 00000KT 10SM SCT026 02/M03 A3056 RMK AO2 T00201031
KAMN 212055Z AUTO 00000KT 10SM BKN026 02/M03 A3055 RMK AO2 T00211028
KAMN 212035Z AUTO 00000KT 10SM BKN026 02/M03 A3055 RMK AO2 T00201028
KAMN 212015Z AUTO 00000KT 10SM SCT026 02/M03 A3054 RMK AO2 T00201027
KAMN 211955Z AUTO 34003KT 10SM SCT024 02/M03 A3053 RMK AO2 T00201026
KAMN 211935Z AUTO 35003KT 10SM BKN024 BKN028 02/M03 A3052 RMK AO2 T00161028
KAMN 211915Z AUTO 33005KT 10SM OVC024 02/M02 A3052 RMK AO2 T00151020
KAMN 211855Z AUTO 33005KT 10SM BKN022 02/M02 A3052 RMK AO2 T00151023
KAMN 211835Z AUTO 30005KT 10SM BKN022 01/M02 A3052 RMK AO2 T00121023
KAMN 211815Z AUTO 32007KT 10SM OVC022 01/M02 A3051 RMK AO2 T00121021
KAMN 211759Z AUTO 32007KT 10SM OVC022 01/M02 A3051 RMK AO2 T00131019 10013 20001
KAMN 211739Z AUTO 31007KT 10SM OVC022 01/M02 A3051 RMK AO2 T00071021
KAMN 211719Z AUTO 32009KT 10SM OVC020 01/M02 A3051 RMK AO2 T00051019
KAMN 211659Z AUTO 31007KT 10SM OVC020 01/M01 A3050 RMK AO2 T00081013
KAMN 211639Z AUTO 31005KT 10SM OVC016 00/M01 A3049 RMK AO2 T00021014
KAMN 211619Z AUTO 30007KT 10SM OVC014 00/M01 A3047 RMK AO2 T00021012
KAMN 211559Z AUTO 34005KT 10SM OVC012 00/M01 A3047 RMK AO2 T00031006
KAMN 211539Z AUTO 34005KT 10SM OVC014 00/M01 A3044 RMK AO2 T00041006
KAMN 211519Z AUTO 31007KT 10SM OVC016 00/M01 A3043 RMK AO2 T00041006
KAMN 211459Z AUTO 29006KT 10SM OVC016 00/00 A3043 RMK AO2 T00031005
KAMN 211439Z AUTO 30005KT 10SM OVC014 00/00 A3040 RMK AO2 T00011005
KAMN 211419Z AUTO 30006KT 10SM OVC014 00/00 A3040 RMK AO2 T00011005
KAMN 211359Z AUTO 30006KT 10SM OVC014 00/00 A3039 RMK AO2 T00021002
KAMN 211339Z AUTO 31004KT 10SM OVC018 01/00 A3037 RMK AO2 T00050000
KAMN 211318Z AUTO 31004KT 10SM OVC020 01/00 A3036 RMK AO2 T00050000
KAMN 211258Z AUTO 30007KT 10SM OVC020 01/00 A3034 RMK AO2 T00050000
KAMN 210756Z AUTO 29007KT 4SM UP SCT010 SCT018 OVC032 03/02 A3013 RMK AO2 T00250023
KAMN 210736Z AUTO 29009KT 4SM -RA SCT009 OVC032 03/03 A3012 RMK AO2 T00260025
KAMN 210716Z AUTO 29007KT 7SM -RA BKN009 OVC030 03/03 A3011 RMK AO2 T00300030
KAMN 210656Z AUTO 29006KT 7SM -RA OVC009 03/03 A3009 RMK AO2 T00310031
KAMN 210636Z AUTO 28007KT 5SM -RA BKN009 OVC030 04/04 A3011 RMK AO2 T00350035
KAMN 210616Z AUTO 27007KT 7SM -SN BKN007 OVC030 04/04 A3009 RMK AO2 T00370037
KAMN 210556Z AUTO 27008KT 5SM -RA OVC009 04/04 A3008 RMK AO2 T00420042 10121 20042 401450016
KAMN 201459Z AUTO 19008KT M1/4SM FG OVC003 12/12 A2989 RMK AO2 T01150115
KAMN 201439Z AUTO 19008KT 1/4SM -RA OVC003 11/11 A2989 RMK AO2 T01110111
KAMN 201419Z AUTO 19009G15KT 3/4SM -RA OVC003 11/11 A2989 RMK AO2 T01140114
KAMN 201358Z AUTO 19011G15KT 3/4SM -RA OVC003 12/12 A2989 RMK AO2 T01150115
KAMN 201338Z AUTO 19013KT 3/4SM RA OVC003 11/11 A2989 RMK AO2 T01140114
KAMN 201318Z AUTO 19012G16KT 2SM RA BKN003 OVC009 12/12 A2988 RMK AO2 T01150115
KAMN 201258Z AUTO 19011KT 2 1/2SM RA OVC003 11/11 A2987 RMK AO2 VIS 1 1/4V5 T01120112
KAMN 201238Z AUTO 19010G15KT 1 3/4SM -RA OVC003 11/11 A2986 RMK AO2 VIS 1 1/4V3 T01110111
KAMN 201218Z AUTO 18010G16KT 2 1/2SM -RA OVC003 11/11 A2986 RMK AO2 VIS 1 1/2V3 T01130113
KAMN 201158Z AUTO 19012KT 4SM RA OVC003 11/11 A2986 RMK AO2 T01130113 10114 20016
KAMN 201138Z AUTO 18012KT 1/4SM RA OVC003 10/10 A2987 RMK AO2 T01020102
KAMN 201118Z AUTO 19010G16KT 3/4SM RA OVC003 11/11 A2988 RMK AO2 T01100110